createdAt,value
2018-07-08T00:00:22.862Z,995.91
2018-07-08T00:01:23.006Z,995.89
2018-07-08T00:02:23.139Z,995.91
2018-07-08T00:03:23.291Z,995.89
2018-07-08T00:04:23.423Z,995.88
2018-07-08T00:05:23.565Z,995.92
2018-07-08T00:06:23.710Z,995.94
2018-07-08T00:07:23.856Z,995.97
2018-07-08T00:08:23.997Z,995.96
2018-07-08T00:09:24.135Z,995.96
2018-07-08T00:10:24.269Z,995.96
2018-07-08T00:11:24.435Z,995.96
2018-07-08T00:12:24.562Z,995.93
2018-07-08T00:13:24.699Z,995.97
2018-07-08T00:14:24.835Z,995.95
2018-07-08T00:15:24.999Z,995.93
2018-07-08T00:16:25.132Z,995.96
2018-07-08T00:17:25.272Z,995.98
2018-07-08T00:18:25.406Z,995.98
2018-07-08T00:19:25.561Z,995.99
2018-07-08T00:20:25.682Z,995.99
2018-07-08T00:21:25.823Z,995.97
2018-07-08T00:22:25.972Z,995.98
2018-07-08T00:23:26.109Z,995.99
2018-07-08T00:24:26.261Z,996.00
2018-07-08T00:25:26.393Z,995.99
2018-07-08T00:26:26.531Z,995.97
2018-07-08T00:27:26.671Z,996.04
2018-07-08T00:28:26.812Z,996.04
2018-07-08T00:29:26.949Z,995.99
2018-07-08T00:30:27.092Z,996.00
2018-07-08T00:31:27.233Z,996.01
2018-07-08T00:32:27.371Z,996.00
2018-07-08T00:33:27.506Z,996.04
2018-07-08T00:34:28.455Z,996.01
2018-07-08T00:35:27.739Z,995.99
2018-07-08T00:36:27.876Z,996.03
2018-07-08T00:37:28.016Z,996.03
2018-07-08T00:38:28.155Z,996.03
2018-07-08T00:39:28.287Z,996.03
2018-07-08T00:40:28.422Z,996.03
2018-07-08T00:41:28.561Z,996.01
2018-07-08T00:42:28.705Z,996.00
2018-07-08T00:43:28.838Z,996.00
2018-07-08T00:44:28.977Z,995.96
2018-07-08T00:45:29.124Z,995.98
2018-07-08T00:46:29.264Z,995.98
2018-07-08T00:47:29.402Z,995.95
2018-07-08T00:48:29.537Z,996.01
2018-07-08T00:49:29.671Z,995.95
2018-07-08T00:50:29.808Z,995.95
2018-07-08T00:51:29.959Z,995.92
2018-07-08T00:52:30.092Z,995.93
2018-07-08T00:53:30.228Z,995.97
2018-07-08T00:54:30.368Z,995.98
2018-07-08T00:55:30.503Z,996.00
2018-07-08T00:56:30.643Z,996.01
2018-07-08T00:57:30.772Z,995.97
2018-07-08T00:58:30.910Z,996.02
2018-07-08T00:59:31.049Z,996.01
2018-07-08T01:00:31.191Z,996.01
2018-07-08T01:01:31.360Z,996.02
2018-07-08T01:02:31.463Z,996.02
2018-07-08T01:03:31.639Z,995.99
2018-07-08T01:04:31.781Z,996.00
2018-07-08T01:05:31.918Z,996.02
2018-07-08T01:06:32.059Z,996.04
2018-07-08T01:07:32.192Z,995.99
2018-07-08T01:08:32.326Z,996.00
2018-07-08T01:09:32.466Z,995.96
2018-07-08T01:10:32.606Z,995.95
2018-07-08T01:11:32.746Z,995.93
2018-07-08T01:12:32.882Z,995.95
2018-07-08T01:13:33.018Z,995.99
2018-07-08T01:14:33.179Z,995.96
2018-07-08T01:15:33.315Z,995.96
2018-07-08T01:16:33.459Z,995.93
2018-07-08T01:17:33.597Z,995.91
2018-07-08T01:18:33.748Z,995.87
2018-07-08T01:19:33.881Z,995.88
2018-07-08T01:20:34.017Z,995.86
2018-07-08T01:21:34.154Z,995.84
2018-07-08T01:22:34.309Z,995.88
2018-07-08T01:23:34.444Z,995.89
2018-07-08T01:24:34.583Z,995.94
2018-07-08T01:25:34.727Z,995.94
2018-07-08T01:26:34.878Z,995.90
2018-07-08T01:27:35.019Z,995.93
2018-07-08T01:28:35.160Z,995.87
2018-07-08T01:29:35.295Z,995.96
2018-07-08T01:30:35.439Z,995.95
2018-07-08T01:31:35.570Z,995.97
2018-07-08T01:32:35.720Z,995.94
2018-07-08T01:33:35.852Z,995.99
2018-07-08T01:34:35.992Z,995.97
2018-07-08T01:35:36.179Z,995.96
2018-07-08T01:36:36.269Z,995.96
2018-07-08T01:37:36.403Z,995.97
2018-07-08T01:38:36.542Z,995.99
2018-07-08T01:39:36.687Z,995.96
2018-07-08T01:40:36.818Z,995.94
2018-07-08T01:41:36.954Z,995.96
2018-07-08T01:42:37.095Z,996.01
2018-07-08T01:43:37.313Z,995.97
2018-07-08T01:44:37.387Z,995.98
2018-07-08T01:45:37.527Z,995.96
2018-07-08T01:46:37.669Z,995.98
2018-07-08T01:47:37.834Z,995.99
2018-07-08T01:48:37.968Z,996.00
2018-07-08T01:49:38.107Z,996.00
2018-07-08T01:50:38.254Z,995.99
2018-07-08T01:51:38.405Z,996.01
2018-07-08T01:52:38.535Z,996.00
2018-07-08T01:53:38.672Z,996.00
2018-07-08T01:54:38.880Z,995.97
2018-07-08T01:55:39.024Z,995.97
2018-07-08T01:56:39.161Z,996.00
2018-07-08T01:57:39.296Z,996.00
2018-07-08T01:58:39.442Z,996.02
2018-07-08T01:59:39.621Z,995.98
2018-07-08T02:00:39.767Z,995.97
2018-07-08T02:01:39.904Z,995.95
2018-07-08T02:02:40.079Z,996.00
2018-07-08T02:03:40.211Z,996.01
2018-07-08T02:04:40.346Z,996.00
2018-07-08T02:05:40.483Z,996.01
2018-07-08T02:06:40.649Z,996.02
2018-07-08T02:07:40.786Z,996.05
2018-07-08T02:08:40.923Z,996.07
2018-07-08T02:09:41.066Z,996.05
2018-07-08T02:10:41.244Z,996.09
2018-07-08T02:11:41.357Z,996.08
2018-07-08T02:12:41.494Z,996.09
2018-07-08T02:13:41.639Z,996.08
2018-07-08T02:14:41.834Z,996.05
2018-07-08T02:15:41.966Z,996.12
2018-07-08T02:16:42.100Z,996.09
2018-07-08T02:17:42.245Z,996.05
2018-07-08T02:18:42.420Z,996.12
2018-07-08T02:19:42.545Z,996.06
2018-07-08T02:20:42.679Z,996.08
2018-07-08T02:21:42.822Z,996.09
2018-07-08T02:22:42.956Z,996.06
2018-07-08T02:23:43.093Z,996.07
2018-07-08T02:24:43.232Z,996.07
2018-07-08T02:25:43.376Z,996.07
2018-07-08T02:26:43.581Z,996.09
2018-07-08T02:27:43.588Z,996.13
2018-07-08T02:28:43.734Z,996.14
2018-07-08T02:29:43.872Z,996.14
2018-07-08T02:30:44.013Z,996.18
2018-07-08T02:31:44.146Z,996.18
2018-07-08T02:32:44.284Z,996.19
2018-07-08T02:33:44.423Z,996.19
2018-07-08T02:34:44.561Z,996.21
2018-07-08T02:35:44.698Z,996.19
2018-07-08T02:36:44.832Z,996.19
2018-07-08T02:37:44.970Z,996.20
2018-07-08T02:38:45.105Z,996.19
2018-07-08T02:39:45.268Z,996.25
2018-07-08T02:40:45.393Z,996.23
2018-07-08T02:41:45.532Z,996.22
2018-07-08T02:42:45.662Z,996.23
2018-07-08T02:43:45.803Z,996.21
2018-07-08T02:44:45.940Z,996.19
2018-07-08T02:45:46.072Z,996.20
2018-07-08T02:46:46.220Z,996.21
2018-07-08T02:47:46.350Z,996.17
2018-07-08T02:48:46.488Z,996.19
2018-07-08T02:49:46.631Z,996.17
2018-07-08T02:50:46.765Z,996.17
2018-07-08T02:51:46.907Z,996.18
2018-07-08T02:52:47.045Z,996.20
2018-07-08T02:53:47.187Z,996.23
2018-07-08T02:54:47.324Z,996.21
2018-07-08T02:55:47.479Z,996.21
2018-07-08T02:56:47.607Z,996.23
2018-07-08T02:57:47.751Z,996.21
2018-07-08T02:58:48.475Z,996.23
2018-07-08T02:59:47.971Z,996.25
2018-07-08T03:00:48.102Z,996.29
2018-07-08T03:01:48.244Z,996.25
2018-07-08T03:02:48.375Z,996.28
2018-07-08T03:03:48.520Z,996.33
2018-07-08T03:04:48.649Z,996.29
2018-07-08T03:05:48.783Z,996.34
2018-07-08T03:06:48.921Z,996.36
2018-07-08T03:07:49.082Z,996.39
2018-07-08T03:08:49.198Z,996.40
2018-07-08T03:09:49.339Z,996.39
2018-07-08T03:10:49.472Z,996.39
2018-07-08T03:11:49.609Z,996.39
2018-07-08T03:12:49.752Z,996.44
2018-07-08T03:13:49.885Z,996.43
2018-07-08T03:14:50.025Z,996.43
2018-07-08T03:15:50.163Z,996.41
2018-07-08T03:16:50.301Z,996.41
2018-07-08T03:17:50.435Z,996.43
2018-07-08T03:18:50.571Z,996.45
2018-07-08T03:19:50.703Z,996.41
2018-07-08T03:20:50.858Z,996.42
2018-07-08T03:21:50.992Z,996.44
2018-07-08T03:22:51.132Z,996.41
2018-07-08T03:23:51.275Z,996.42
2018-07-08T03:24:51.414Z,996.44
2018-07-08T03:25:51.550Z,996.42
2018-07-08T03:26:51.696Z,996.43
2018-07-08T03:27:51.828Z,996.47
2018-07-08T03:28:52.011Z,996.45
2018-07-08T03:29:52.113Z,996.43
2018-07-08T03:30:52.250Z,996.46
2018-07-08T03:31:52.443Z,996.50
2018-07-08T03:32:52.538Z,996.48
2018-07-08T03:33:52.674Z,996.46
2018-07-08T03:34:52.808Z,996.51
2018-07-08T03:35:52.964Z,996.52
2018-07-08T03:36:53.091Z,996.51
2018-07-08T03:37:53.235Z,996.47
2018-07-08T03:38:53.372Z,996.48
2018-07-08T03:39:53.563Z,996.52
2018-07-08T03:40:53.667Z,996.50
2018-07-08T03:41:53.810Z,996.52
2018-07-08T03:42:53.949Z,996.49
2018-07-08T03:43:54.082Z,996.52
2018-07-08T03:44:54.220Z,996.52
2018-07-08T03:45:54.358Z,996.57
2018-07-08T03:46:54.502Z,996.52
2018-07-08T03:47:54.631Z,996.53
2018-07-08T03:48:54.774Z,996.52
2018-07-08T03:49:54.908Z,996.56
2018-07-08T03:50:55.094Z,996.55
2018-07-08T03:51:55.205Z,996.55
2018-07-08T03:52:55.331Z,996.56
2018-07-08T03:53:55.469Z,996.56
2018-07-08T03:54:55.620Z,996.59
2018-07-08T03:55:55.755Z,996.60
2018-07-08T03:56:55.892Z,996.61
2018-07-08T03:57:56.029Z,996.64
2018-07-08T03:58:56.190Z,996.61
2018-07-08T03:59:56.326Z,996.64
2018-07-08T04:00:56.472Z,996.61
2018-07-08T04:01:56.625Z,996.62
2018-07-08T04:02:56.753Z,996.66
2018-07-08T04:03:56.907Z,996.61
2018-07-08T04:04:57.066Z,996.61
2018-07-08T04:05:57.210Z,996.61
2018-07-08T04:06:57.344Z,996.64
2018-07-08T04:07:57.480Z,996.62
2018-07-08T04:08:57.621Z,996.64
2018-07-08T04:09:57.755Z,996.60
2018-07-08T04:10:57.887Z,996.64
2018-07-08T04:11:58.036Z,996.64
2018-07-08T04:12:58.171Z,996.63
2018-07-08T04:13:58.305Z,996.64
2018-07-08T04:14:58.441Z,996.64
2018-07-08T04:15:58.585Z,996.64
2018-07-08T04:16:58.722Z,996.57
2018-07-08T04:17:58.858Z,996.62
2018-07-08T04:18:58.993Z,996.56
2018-07-08T04:19:59.127Z,996.56
2018-07-08T04:20:59.268Z,996.53
2018-07-08T04:21:59.404Z,996.54
2018-07-08T04:22:59.543Z,996.55
2018-07-08T04:23:59.675Z,996.53
2018-07-08T04:24:59.817Z,996.55
2018-07-08T04:25:59.955Z,996.59
2018-07-08T04:27:00.090Z,996.57
2018-07-08T04:28:00.229Z,996.53
2018-07-08T04:29:00.367Z,996.60
2018-07-08T04:30:00.507Z,996.62
2018-07-08T04:31:00.644Z,996.59
2018-07-08T04:32:00.782Z,996.63
2018-07-08T04:33:00.916Z,996.61
2018-07-08T04:34:01.054Z,996.61
2018-07-08T04:35:01.188Z,996.60
2018-07-08T04:36:01.325Z,996.59
2018-07-08T04:37:01.461Z,996.59
2018-07-08T04:38:01.605Z,996.61
2018-07-08T04:39:01.739Z,996.63
2018-07-08T04:40:01.874Z,996.60
2018-07-08T04:41:02.020Z,996.63
2018-07-08T04:42:02.159Z,996.64
2018-07-08T04:43:02.294Z,996.63
2018-07-08T04:44:02.429Z,996.69
2018-07-08T04:45:02.568Z,996.68
2018-07-08T04:46:02.698Z,996.70
2018-07-08T04:47:02.837Z,996.71
2018-07-08T04:48:02.973Z,996.71
2018-07-08T04:49:03.105Z,996.74
2018-07-08T04:50:03.245Z,996.69
2018-07-08T04:51:03.376Z,996.71
2018-07-08T04:52:03.512Z,996.76
2018-07-08T04:53:03.656Z,996.76
2018-07-08T04:54:03.794Z,996.77
2018-07-08T04:55:03.930Z,996.77
2018-07-08T04:56:04.059Z,996.76
2018-07-08T04:57:04.199Z,996.78
2018-07-08T04:58:04.332Z,996.80
2018-07-08T04:59:04.473Z,996.78
2018-07-08T05:00:04.610Z,996.80
2018-07-08T05:01:04.746Z,996.82
2018-07-08T05:02:04.885Z,996.80
2018-07-08T05:03:05.023Z,996.81
2018-07-08T05:04:05.164Z,996.80
2018-07-08T05:05:05.304Z,996.83
2018-07-08T05:06:05.439Z,996.82
2018-07-08T05:07:05.570Z,996.81
2018-07-08T05:08:05.723Z,996.85
2018-07-08T05:09:05.855Z,996.85
2018-07-08T05:10:05.993Z,996.86
2018-07-08T05:11:06.127Z,996.84
2018-07-08T05:12:06.267Z,996.81
2018-07-08T05:13:06.403Z,996.85
2018-07-08T05:14:06.544Z,996.83
2018-07-08T05:15:06.679Z,996.83
2018-07-08T05:16:06.822Z,996.84
2018-07-08T05:17:06.955Z,996.82
2018-07-08T05:18:07.100Z,996.82
2018-07-08T05:19:07.234Z,996.82
2018-07-08T05:20:07.362Z,996.82
2018-07-08T05:21:07.500Z,996.79
2018-07-08T05:22:07.649Z,996.79
2018-07-08T05:23:07.785Z,996.80
2018-07-08T05:24:07.934Z,996.82
2018-07-08T05:25:08.074Z,996.84
2018-07-08T05:26:08.201Z,996.83
2018-07-08T05:27:08.343Z,996.84
2018-07-08T05:28:08.487Z,996.84
2018-07-08T05:29:08.620Z,996.81
2018-07-08T05:30:08.761Z,996.82
2018-07-08T05:31:08.898Z,996.81
2018-07-08T05:32:09.033Z,996.81
2018-07-08T05:33:09.173Z,996.77
2018-07-08T05:34:09.307Z,996.82
2018-07-08T05:35:09.445Z,996.79
2018-07-08T05:36:09.575Z,996.82
2018-07-08T05:37:09.713Z,996.81
2018-07-08T05:38:09.849Z,996.81
2018-07-08T05:39:09.985Z,996.81
2018-07-08T05:40:10.124Z,996.86
2018-07-08T05:41:10.261Z,996.89
2018-07-08T05:42:10.401Z,996.91
2018-07-08T05:43:10.543Z,996.85
2018-07-08T05:44:10.688Z,996.87
2018-07-08T05:45:10.824Z,996.84
2018-07-08T05:46:10.958Z,996.84
2018-07-08T05:47:11.098Z,996.86
2018-07-08T05:48:11.245Z,996.86
2018-07-08T05:49:11.379Z,996.88
2018-07-08T05:50:11.562Z,996.86
2018-07-08T05:51:11.667Z,996.90
2018-07-08T05:52:11.804Z,996.91
2018-07-08T05:53:11.944Z,996.89
2018-07-08T05:54:13.002Z,996.87
2018-07-08T05:55:12.304Z,996.93
2018-07-08T05:56:12.430Z,996.90
2018-07-08T05:57:12.568Z,996.91
2018-07-08T05:58:12.708Z,996.90
2018-07-08T05:59:12.842Z,996.91
2018-07-08T06:00:12.981Z,996.89
2018-07-08T06:01:13.116Z,996.88
2018-07-08T06:02:13.258Z,996.88
2018-07-08T06:03:13.409Z,996.89
2018-07-08T06:04:13.548Z,996.87
2018-07-08T06:05:13.682Z,996.87
2018-07-08T06:06:13.874Z,996.84
2018-07-08T06:07:14.009Z,996.87
2018-07-08T06:08:14.148Z,996.84
2018-07-08T06:09:14.293Z,996.84
2018-07-08T06:10:14.431Z,996.82
2018-07-08T06:11:14.567Z,996.81
2018-07-08T06:12:14.705Z,996.82
2018-07-08T06:13:14.844Z,996.78
2018-07-08T06:14:14.984Z,996.79
2018-07-08T06:15:15.115Z,996.81
2018-07-08T06:16:15.257Z,996.72
2018-07-08T06:17:15.399Z,996.73
2018-07-08T06:18:15.527Z,996.73
2018-07-08T06:19:15.670Z,996.68
2018-07-08T06:20:15.810Z,996.72
2018-07-08T06:21:15.947Z,996.70
2018-07-08T06:22:16.088Z,996.65
2018-07-08T06:23:16.218Z,996.67
2018-07-08T06:24:16.353Z,996.64
2018-07-08T06:25:16.490Z,996.64
2018-07-08T06:26:16.633Z,996.64
2018-07-08T06:27:16.781Z,996.63
2018-07-08T06:28:16.924Z,996.61
2018-07-08T06:29:17.067Z,996.63
2018-07-08T06:30:17.204Z,996.66
2018-07-08T06:31:17.339Z,996.68
2018-07-08T06:32:17.481Z,996.69
2018-07-08T06:33:17.619Z,996.71
2018-07-08T06:34:17.766Z,996.68
2018-07-08T06:35:17.903Z,996.66
2018-07-08T06:36:18.047Z,996.72
2018-07-08T06:37:18.200Z,996.71
2018-07-08T06:38:18.321Z,996.71
2018-07-08T06:39:18.496Z,996.74
2018-07-08T06:40:18.595Z,996.78
2018-07-08T06:41:18.739Z,996.74
2018-07-08T06:42:18.870Z,996.74
2018-07-08T06:43:19.017Z,996.73
2018-07-08T06:44:19.159Z,996.75
2018-07-08T06:45:19.298Z,996.73
2018-07-08T06:46:19.442Z,996.73
2018-07-08T06:47:19.616Z,996.77
2018-07-08T06:48:19.756Z,996.76
2018-07-08T06:49:19.893Z,996.77
2018-07-08T06:50:20.042Z,996.76
2018-07-08T06:51:20.186Z,996.78
2018-07-08T06:52:20.324Z,996.78
2018-07-08T06:53:20.467Z,996.77
2018-07-08T06:54:20.604Z,996.79
2018-07-08T06:55:20.738Z,996.76
2018-07-08T06:56:20.879Z,996.74
2018-07-08T06:57:21.015Z,996.74
2018-07-08T06:58:21.151Z,996.75
2018-07-08T06:59:21.289Z,996.75
2018-07-08T07:00:21.448Z,996.75
2018-07-08T07:01:21.566Z,996.78
2018-07-08T07:02:21.711Z,996.76
2018-07-08T07:03:21.851Z,996.77
2018-07-08T07:04:21.995Z,996.76
2018-07-08T07:05:22.130Z,996.71
2018-07-08T07:06:22.276Z,996.72
2018-07-08T07:07:22.418Z,996.75
2018-07-08T07:08:22.559Z,996.70
2018-07-08T07:09:22.702Z,996.70
2018-07-08T07:10:22.830Z,996.73
2018-07-08T07:11:22.968Z,996.69
2018-07-08T07:12:23.107Z,996.66
2018-07-08T07:13:23.251Z,996.64
2018-07-08T07:14:23.386Z,996.62
2018-07-08T07:15:23.531Z,996.63
2018-07-08T07:16:23.671Z,996.63
2018-07-08T07:17:23.859Z,996.61
2018-07-08T07:18:23.946Z,996.61
2018-07-08T07:19:24.085Z,996.55
2018-07-08T07:20:24.224Z,996.59
2018-07-08T07:21:24.369Z,996.57
2018-07-08T07:22:24.502Z,996.59
2018-07-08T07:23:24.639Z,996.58
2018-07-08T07:24:24.775Z,996.52
2018-07-08T07:25:24.916Z,996.56
2018-07-08T07:26:25.055Z,996.56
2018-07-08T07:27:25.199Z,996.57
2018-07-08T07:28:25.333Z,996.57
2018-07-08T07:29:25.487Z,996.57
2018-07-08T07:30:25.603Z,996.57
2018-07-08T07:31:25.743Z,996.59
2018-07-08T07:32:25.915Z,996.58
2018-07-08T07:33:26.050Z,996.59
2018-07-08T07:34:26.189Z,996.58
2018-07-08T07:35:26.328Z,996.60
2018-07-08T07:36:26.473Z,996.63
2018-07-08T07:37:26.696Z,996.58
2018-07-08T07:38:26.761Z,996.58
2018-07-08T07:39:26.892Z,996.56
2018-07-08T07:40:27.041Z,996.57
2018-07-08T07:41:27.165Z,996.59
2018-07-08T07:42:27.304Z,996.58
2018-07-08T07:43:28.020Z,996.60
2018-07-08T07:44:27.531Z,996.61
2018-07-08T07:45:27.723Z,996.60
2018-07-08T07:46:27.820Z,996.58
2018-07-08T07:47:27.958Z,996.54
2018-07-08T07:48:28.094Z,996.51
2018-07-08T07:49:28.233Z,996.52
2018-07-08T07:50:28.373Z,996.52
2018-07-08T07:51:28.507Z,996.52
2018-07-08T07:52:28.651Z,996.51
2018-07-08T07:53:28.800Z,996.50
2018-07-08T07:54:28.926Z,996.50
2018-07-08T07:55:29.063Z,996.48
2018-07-08T07:56:29.202Z,996.47
2018-07-08T07:57:29.337Z,996.49
2018-07-08T07:58:29.480Z,996.49
2018-07-08T07:59:29.621Z,996.43
2018-07-08T08:00:29.758Z,996.46
2018-07-08T08:01:29.899Z,996.48
2018-07-08T08:02:30.031Z,996.45
2018-07-08T08:03:30.170Z,996.45
2018-07-08T08:04:30.306Z,996.45
2018-07-08T08:05:30.495Z,996.42
2018-07-08T08:06:30.582Z,996.45
2018-07-08T08:07:30.722Z,996.44
2018-07-08T08:08:30.867Z,996.43
2018-07-08T08:09:31.009Z,996.43
2018-07-08T08:10:31.143Z,996.46
2018-07-08T08:11:31.283Z,996.40
2018-07-08T08:12:31.442Z,996.45
2018-07-08T08:13:31.584Z,996.45
2018-07-08T08:14:31.747Z,996.45
2018-07-08T08:15:31.898Z,996.46
2018-07-08T08:16:32.044Z,996.49
2018-07-08T08:17:32.178Z,996.48
2018-07-08T08:18:32.320Z,996.45
2018-07-08T08:19:32.481Z,996.47
2018-07-08T08:20:32.624Z,996.47
2018-07-08T08:21:32.763Z,996.48
2018-07-08T08:22:32.907Z,996.50
2018-07-08T08:23:33.046Z,996.47
2018-07-08T08:24:33.181Z,996.47
2018-07-08T08:25:33.328Z,996.47
2018-07-08T08:26:33.558Z,996.46
2018-07-08T08:27:33.638Z,996.48
2018-07-08T08:28:33.774Z,996.44
2018-07-08T08:29:33.924Z,996.42
2018-07-08T08:30:34.075Z,996.43
2018-07-08T08:31:34.254Z,996.41
2018-07-08T08:32:34.348Z,996.40
2018-07-08T08:33:34.487Z,996.44
2018-07-08T08:34:34.625Z,996.46
2018-07-08T08:35:34.773Z,996.46
2018-07-08T08:36:34.955Z,996.44
2018-07-08T08:37:35.050Z,996.45
2018-07-08T08:38:35.194Z,996.45
2018-07-08T08:39:35.335Z,996.48
2018-07-08T08:40:35.476Z,996.45
2018-07-08T08:41:35.616Z,996.49
2018-07-08T08:42:35.761Z,996.47
2018-07-08T08:43:35.901Z,996.46
2018-07-08T08:44:36.045Z,996.51
2018-07-08T08:45:36.193Z,996.50
2018-07-08T08:46:36.334Z,996.47
2018-07-08T08:47:36.474Z,996.49
2018-07-08T08:48:36.613Z,996.46
2018-07-08T08:49:36.752Z,996.47
2018-07-08T08:50:36.886Z,996.48
2018-07-08T08:51:37.029Z,996.49
2018-07-08T08:52:37.165Z,996.50
2018-07-08T08:53:37.302Z,996.54
2018-07-08T08:54:37.442Z,996.55
2018-07-08T08:55:37.575Z,996.56
2018-07-08T08:56:37.720Z,996.51
2018-07-08T08:57:37.871Z,996.56
2018-07-08T08:58:38.007Z,996.56
2018-07-08T08:59:38.134Z,996.56
2018-07-08T09:00:38.278Z,996.56
2018-07-08T09:01:38.414Z,996.60
2018-07-08T09:02:38.556Z,996.59
2018-07-08T09:03:38.726Z,996.60
2018-07-08T09:04:38.839Z,996.60
2018-07-08T09:05:38.974Z,996.58
2018-07-08T09:06:39.131Z,996.63
2018-07-08T09:07:39.270Z,996.64
2018-07-08T09:08:39.409Z,996.62
2018-07-08T09:09:39.614Z,996.62
2018-07-08T09:10:39.732Z,996.58
2018-07-08T09:11:39.841Z,996.51
2018-07-08T09:12:39.977Z,996.50
2018-07-08T09:13:40.126Z,996.55
2018-07-08T09:14:40.320Z,996.52
2018-07-08T09:15:40.457Z,996.52
2018-07-08T09:16:40.603Z,996.53
2018-07-08T09:17:40.742Z,996.52
2018-07-08T09:18:40.888Z,996.54
2018-07-08T09:19:41.034Z,996.53
2018-07-08T09:20:41.170Z,996.56
2018-07-08T09:21:41.326Z,996.55
2018-07-08T09:22:41.447Z,996.57
2018-07-08T09:23:41.667Z,996.56
2018-07-08T09:24:41.719Z,996.54
2018-07-08T09:25:41.856Z,996.58
2018-07-08T09:26:42.548Z,996.55
2018-07-08T09:27:42.088Z,996.55
2018-07-08T09:28:42.248Z,996.58
2018-07-08T09:29:42.411Z,996.51
2018-07-08T09:30:42.526Z,996.47
2018-07-08T09:31:42.657Z,996.49
2018-07-08T09:32:42.801Z,996.53
2018-07-08T09:33:42.940Z,996.50
2018-07-08T09:34:43.079Z,996.51
2018-07-08T09:35:43.218Z,996.52
2018-07-08T09:36:43.367Z,996.52
2018-07-08T09:37:43.491Z,996.53
2018-07-08T09:38:43.706Z,996.56
2018-07-08T09:39:43.772Z,996.58
2018-07-08T09:40:43.920Z,996.60
2018-07-08T09:41:44.059Z,996.61
2018-07-08T09:42:44.197Z,996.59
2018-07-08T09:43:44.340Z,996.60
2018-07-08T09:44:44.484Z,996.62
2018-07-08T09:45:44.619Z,996.59
2018-07-08T09:46:44.763Z,996.58
2018-07-08T09:47:44.903Z,996.56
2018-07-08T09:48:45.042Z,996.57
2018-07-08T09:49:45.188Z,996.54
2018-07-08T09:50:45.336Z,996.60
2018-07-08T09:51:45.470Z,996.57
2018-07-08T09:52:45.615Z,996.55
2018-07-08T09:53:45.753Z,996.54
2018-07-08T09:54:45.906Z,996.52
2018-07-08T09:55:46.048Z,996.61
2018-07-08T09:56:46.187Z,996.59
2018-07-08T09:57:46.329Z,996.54
2018-07-08T09:58:46.470Z,996.61
2018-07-08T09:59:46.624Z,996.58
2018-07-08T10:00:46.762Z,996.53
2018-07-08T10:01:46.902Z,996.55
2018-07-08T10:02:47.045Z,996.56
2018-07-08T10:03:47.182Z,996.52
2018-07-08T10:04:47.332Z,996.52
2018-07-08T10:05:47.466Z,996.53
2018-07-08T10:06:47.611Z,996.51
2018-07-08T10:07:47.760Z,996.50
2018-07-08T10:08:47.923Z,996.53
2018-07-08T10:09:48.051Z,996.48
2018-07-08T10:10:48.197Z,996.48
2018-07-08T10:11:48.328Z,996.52
2018-07-08T10:12:48.465Z,996.54
2018-07-08T10:13:48.665Z,996.50
2018-07-08T10:14:48.745Z,996.52
2018-07-08T10:15:48.890Z,996.53
2018-07-08T10:16:49.032Z,996.53
2018-07-08T10:17:49.195Z,996.48
2018-07-08T10:18:49.320Z,996.53
2018-07-08T10:19:49.621Z,996.49
2018-07-08T10:20:49.614Z,996.49
2018-07-08T10:21:49.754Z,996.52
2018-07-08T10:22:49.905Z,996.52
2018-07-08T10:23:50.045Z,996.51
2018-07-08T10:24:50.189Z,996.50
2018-07-08T10:25:51.048Z,996.51
2018-07-08T10:26:50.475Z,996.53
2018-07-08T10:27:50.618Z,996.53
2018-07-08T10:28:50.758Z,996.52
2018-07-08T10:29:50.900Z,996.56
2018-07-08T10:30:51.104Z,996.52
2018-07-08T10:31:51.197Z,996.53
2018-07-08T10:32:51.318Z,996.54
2018-07-08T10:33:51.460Z,996.55
2018-07-08T10:34:51.606Z,996.54
2018-07-08T10:35:51.745Z,996.51
2018-07-08T10:36:51.895Z,996.54
2018-07-08T10:37:52.039Z,996.55
2018-07-08T10:38:52.176Z,996.56
2018-07-08T10:39:52.344Z,996.57
2018-07-08T10:40:52.487Z,996.54
2018-07-08T10:41:52.633Z,996.59
2018-07-08T10:42:52.773Z,996.55
2018-07-08T10:43:52.921Z,996.58
2018-07-08T10:44:53.060Z,996.59
2018-07-08T10:45:53.221Z,996.55
2018-07-08T10:46:53.367Z,996.55
2018-07-08T10:47:53.507Z,996.57
2018-07-08T10:48:53.643Z,996.56
2018-07-08T10:49:53.784Z,996.55
2018-07-08T10:50:53.928Z,996.54
2018-07-08T10:51:54.066Z,996.52
2018-07-08T10:52:54.213Z,996.55
2018-07-08T10:53:54.357Z,996.52
2018-07-08T10:54:54.490Z,996.47
2018-07-08T10:55:54.633Z,996.39
2018-07-08T10:56:54.779Z,996.41
2018-07-08T10:57:54.922Z,996.37
2018-07-08T10:58:55.075Z,996.35
2018-07-08T10:59:55.217Z,996.31
2018-07-08T11:00:55.361Z,996.37
2018-07-08T11:01:55.511Z,996.36
2018-07-08T11:02:55.646Z,996.33
2018-07-08T11:03:55.795Z,996.32
2018-07-08T11:04:55.937Z,996.33
2018-07-08T11:05:56.079Z,996.31
2018-07-08T11:06:56.217Z,996.30
2018-07-08T11:07:56.364Z,996.29
2018-07-08T11:08:56.502Z,996.31
2018-07-08T11:09:56.642Z,996.29
2018-07-08T11:10:56.789Z,996.29
2018-07-08T11:11:56.927Z,996.29
2018-07-08T11:12:57.072Z,996.27
2018-07-08T11:13:57.211Z,996.27
2018-07-08T11:14:57.352Z,996.28
2018-07-08T11:15:57.505Z,996.25
2018-07-08T11:16:57.628Z,996.23
2018-07-08T11:17:57.776Z,996.23
2018-07-08T11:18:57.911Z,996.19
2018-07-08T11:19:58.054Z,996.22
2018-07-08T11:20:58.270Z,996.20
2018-07-08T11:21:58.343Z,996.19
2018-07-08T11:22:58.499Z,996.19
2018-07-08T11:23:58.659Z,996.21
2018-07-08T11:24:58.811Z,996.25
2018-07-08T11:25:58.952Z,996.21
2018-07-08T11:26:59.101Z,996.18
2018-07-08T11:27:59.232Z,996.14
2018-07-08T11:28:59.378Z,996.10
2018-07-08T11:29:59.526Z,996.14
2018-07-08T11:30:59.668Z,996.14
2018-07-08T11:31:59.811Z,996.17
2018-07-08T11:32:59.949Z,996.17
2018-07-08T11:34:00.124Z,996.17
2018-07-08T11:35:00.275Z,996.17
2018-07-08T11:36:00.416Z,996.16
2018-07-08T11:37:00.556Z,996.14
2018-07-08T11:38:00.702Z,996.15
2018-07-08T11:39:00.846Z,996.14
2018-07-08T11:40:00.986Z,996.10
2018-07-08T11:41:01.135Z,996.12
2018-07-08T11:42:01.281Z,996.08
2018-07-08T11:43:01.480Z,996.11
2018-07-08T11:44:01.576Z,996.16
2018-07-08T11:45:01.718Z,996.11
2018-07-08T11:46:01.871Z,996.17
2018-07-08T11:47:02.008Z,996.12
2018-07-08T11:48:02.149Z,996.15
2018-07-08T11:49:02.334Z,996.08
2018-07-08T11:50:02.461Z,996.17
2018-07-08T11:51:02.603Z,996.12
2018-07-08T11:52:02.747Z,996.13
2018-07-08T11:53:02.887Z,996.10
2018-07-08T11:54:03.030Z,996.11
2018-07-08T11:55:03.173Z,996.13
2018-07-08T11:56:03.329Z,996.07
2018-07-08T11:57:03.469Z,996.09
2018-07-08T11:58:03.619Z,996.08
2018-07-08T11:59:03.758Z,996.10
2018-07-08T12:00:03.900Z,996.06
2018-07-08T12:01:04.089Z,996.07
2018-07-08T12:02:04.240Z,996.06
2018-07-08T12:03:04.405Z,996.03
2018-07-08T12:04:04.553Z,996.04
2018-07-08T12:05:04.708Z,996.03
2018-07-08T12:06:04.837Z,995.96
2018-07-08T12:07:04.988Z,996.00
2018-07-08T12:08:05.130Z,996.00
2018-07-08T12:09:05.278Z,995.98
2018-07-08T12:10:05.430Z,995.95
2018-07-08T12:11:05.570Z,995.98
2018-07-08T12:12:05.713Z,995.95
2018-07-08T12:13:05.865Z,996.00
2018-07-08T12:14:06.017Z,995.96
2018-07-08T12:15:06.150Z,995.96
2018-07-08T12:16:06.298Z,995.99
2018-07-08T12:17:06.437Z,995.96
2018-07-08T12:18:06.586Z,995.97
2018-07-08T12:19:06.824Z,995.98
2018-07-08T12:20:06.852Z,996.00
2018-07-08T12:21:07.009Z,995.99
2018-07-08T12:22:07.167Z,995.97
2018-07-08T12:23:07.280Z,995.97
2018-07-08T12:24:07.451Z,996.05
2018-07-08T12:25:07.613Z,995.99
2018-07-08T12:26:07.751Z,996.00
2018-07-08T12:27:07.894Z,995.97
2018-07-08T12:28:08.037Z,995.93
2018-07-08T12:29:08.180Z,995.89
2018-07-08T12:30:08.325Z,995.89